Time;durP1;ratioP1;P1;durP2;ratioP2;P2;SDS_P1;SDS_P2;PMS_P1;PMS_P2;Temp;Humidity;BMP_temperature;BMP_pressure;BME280_temperature;BME280_humidity;BME280_pressure;Samples;Min_cycle;Max_cycle;Signal;HPM_P1;HPM_P2
2024/01/10 00:00:06;;;;;;;14.63;8.32;;;;;;;;;;5170278;27;20054;-53
2024/01/10 00:02:33;;;;;;;14.63;7.78;;;;;;;;;;5172499;27;20046;-51
2024/01/10 00:05:00;;;;;;;15.18;9.02;;;;;;;;;;5174332;27;20054;-51
2024/01/10 00:07:26;;;;;;;14.20;8.32;;;;;;;;;;5158189;27;20426;-52
2024/01/10 00:09:53;;;;;;;14.15;8.13;;;;;;;;;;5161830;27;20046;-55
2024/01/10 00:12:21;;;;;;;13.93;8.38;;;;;;;;;;5159987;27;20046;-53
2024/01/10 00:14:48;;;;;;;14.30;8.80;;;;;;;;;;5167164;27;20053;-54
2024/01/10 00:17:15;;;;;;;15.18;8.38;;;;;;;;;;5166298;27;20046;-52
2024/01/10 00:19:42;;;;;;;13.75;8.20;;;;;;;;;;5162961;27;20050;-54
2024/01/10 00:22:09;;;;;;;15.13;8.23;;;;;;;;;;5165644;27;20050;-50
2024/01/10 00:24:36;;;;;;;13.88;8.38;;;;;;;;;;5154940;27;20051;-50
2024/01/10 00:27:03;;;;;;;15.85;8.80;;;;;;;;;;5159681;27;20053;-53
2024/01/10 00:29:31;;;;;;;13.63;8.50;;;;;;;;;;5161334;27;20055;-54
2024/01/10 00:31:59;;;;;;;15.95;8.18;;;;;;;;;;5173612;27;20054;-54
2024/01/10 00:34:26;;;;;;;13.15;7.75;;;;;;;;;;5174857;27;20054;-51
2024/01/10 00:36:53;;;;;;;13.95;8.82;;;;;;;;;;5174298;27;20050;-53
2024/01/10 00:39:20;;;;;;;13.55;7.85;;;;;;;;;;5166457;27;20046;-53
2024/01/10 00:41:47;;;;;;;15.43;8.43;;;;;;;;;;5153807;27;20057;-51
2024/01/10 00:44:14;;;;;;;14.40;8.43;;;;;;;;;;5153655;27;20050;-54
2024/01/10 00:46:42;;;;;;;12.43;7.70;;;;;;;;;;5153641;27;20050;-52
2024/01/10 00:49:08;;;;;;;13.38;8.15;;;;;;;;;;5153207;27;20058;-52
2024/01/10 00:51:35;;;;;;;14.10;7.63;;;;;;;;;;5161796;27;20389;-52
2024/01/10 00:54:02;;;;;;;13.25;7.85;;;;;;;;;;5156870;27;20054;-52
2024/01/10 00:56:29;;;;;;;16.10;8.07;;;;;;;;;;5153723;27;20051;-52
2024/01/10 00:58:57;;;;;;;14.27;8.27;;;;;;;;;;5153454;27;20057;-52
2024/01/10 01:01:24;;;;;;;14.60;8.13;;;;;;;;;;5162678;27;20051;-50
2024/01/10 01:03:52;;;;;;;14.80;8.00;;;;;;;;;;5160998;27;20395;-54
2024/01/10 01:06:19;;;;;;;12.27;8.15;;;;;;;;;;5165143;27;20072;-53
2024/01/10 01:08:46;;;;;;;14.68;8.48;;;;;;;;;;5157609;27;20050;-53
2024/01/10 01:11:14;;;;;;;15.07;8.45;;;;;;;;;;5160089;27;20050;-55
2024/01/10 01:13:41;;;;;;;14.13;7.88;;;;;;;;;;5162991;27;20050;-53
2024/01/10 01:16:08;;;;;;;16.77;7.95;;;;;;;;;;5161930;27;20399;-52
2024/01/10 01:18:35;;;;;;;13.60;7.97;;;;;;;;;;5169679;27;20393;-51
2024/01/10 01:21:04;;;;;;;15.32;8.63;;;;;;;;;;5177866;27;20057;-51
2024/01/10 01:23:31;;;;;;;14.03;8.53;;;;;;;;;;5164448;27;20058;-53
2024/01/10 01:25:57;;;;;;;17.35;8.57;;;;;;;;;;5157147;27;20057;-53
2024/01/10 01:28:24;;;;;;;14.27;8.55;;;;;;;;;;5156818;27;20513;-51
2024/01/10 01:30:51;;;;;;;17.10;8.70;;;;;;;;;;5156982;27;20077;-51
2024/01/10 01:33:18;;;;;;;19.65;9.82;;;;;;;;;;5156916;27;20058;-53
2024/01/10 01:35:45;;;;;;;21.48;10.55;;;;;;;;;;5157252;27;20057;-51
2024/01/10 01:38:13;;;;;;;16.23;8.98;;;;;;;;;;5147693;27;20054;-53
2024/01/10 01:40:40;;;;;;;17.10;9.63;;;;;;;;;;5136460;27;20486;-50
2024/01/10 01:43:18;;;;;;;17.58;9.57;;;;;;;;;;5136288;27;20408;-50
2024/01/10 01:45:45;;;;;;;18.15;9.43;;;;;;;;;;5164864;27;20046;-51
2024/01/10 01:48:12;;;;;;;16.63;8.77;;;;;;;;;;5163112;27;20050;-52
2024/01/10 01:50:40;;;;;;;16.52;8.43;;;;;;;;;;5162075;27;20053;-54
2024/01/10 01:53:07;;;;;;;14.27;8.02;;;;;;;;;;5155944;27;20058;-53
2024/01/10 01:55:35;;;;;;;13.77;8.18;;;;;;;;;;5156682;27;20051;-53
2024/01/10 01:58:03;;;;;;;12.50;7.30;;;;;;;;;;5156412;27;20058;-52
2024/01/10 02:00:30;;;;;;;14.02;8.68;;;;;;;;;;5156037;27;20051;-51
2024/01/10 02:02:57;;;;;;;14.95;8.07;;;;;;;;;;5164473;27;20046;-51
2024/01/10 02:05:25;;;;;;;14.88;8.70;;;;;;;;;;5162435;27;20053;-51
2024/01/10 02:07:52;;;;;;;13.85;8.27;;;;;;;;;;5156146;27;20376;-50
2024/01/10 02:10:19;;;;;;;13.70;7.45;;;;;;;;;;5156362;27;20061;-53
2024/01/10 02:12:47;;;;;;;15.52;8.40;;;;;;;;;;5158060;27;20396;-52
2024/01/10 02:15:14;;;;;;;13.93;8.48;;;;;;;;;;5166755;27;20054;-52
2024/01/10 02:17:41;;;;;;;13.57;7.95;;;;;;;;;;5165324;27;20043;-53
2024/01/10 02:20:09;;;;;;;14.45;8.63;;;;;;;;;;5158934;27;20047;-52
2024/01/10 02:22:35;;;;;;;14.27;8.27;;;;;;;;;;5156276;27;20047;-50
2024/01/10 02:25:04;;;;;;;16.27;9.40;;;;;;;;;;5156203;27;20054;-52
2024/01/10 02:27:31;;;;;;;17.25;8.73;;;;;;;;;;5155709;27;20051;-49
2024/01/10 02:29:58;;;;;;;16.25;8.60;;;;;;;;;;5156788;27;20054;-53
2024/01/10 02:32:25;;;;;;;17.38;7.85;;;;;;;;;;5135316;27;20047;-50
2024/01/10 02:34:52;;;;;;;14.88;8.35;;;;;;;;;;5143358;27;20057;-50
2024/01/10 02:37:19;;;;;;;15.80;8.52;;;;;;;;;;5156056;27;20054;-54
2024/01/10 02:39:46;;;;;;;15.02;8.52;;;;;;;;;;5157276;27;20066;-53
2024/01/10 02:42:14;;;;;;;16.08;8.15;;;;;;;;;;5164126;27;20416;-50
2024/01/10 02:44:40;;;;;;;15.18;7.88;;;;;;;;;;5164316;27;20050;-52
2024/01/10 02:47:07;;;;;;;15.95;8.15;;;;;;;;;;5163341;27;20578;-53
2024/01/10 02:49:34;;;;;;;15.90;8.18;;;;;;;;;;5161071;27;20492;-52
2024/01/10 02:52:01;;;;;;;16.55;8.38;;;;;;;;;;5162138;27;20054;-51
2024/01/10 02:54:28;;;;;;;15.45;8.43;;;;;;;;;;5141190;27;20051;-50
2024/01/10 02:56:55;;;;;;;14.98;8.32;;;;;;;;;;5144700;27;20054;-51
2024/01/10 02:59:23;;;;;;;15.25;8.75;;;;;;;;;;5138468;27;20465;-53
2024/01/10 03:01:50;;;;;;;15.02;8.35;;;;;;;;;;5142639;27;20057;-53
2024/01/10 03:04:17;;;;;;;14.10;8.02;;;;;;;;;;5140806;27;20058;-53
2024/01/10 03:06:43;;;;;;;13.25;8.02;;;;;;;;;;5142586;27;20046;-51
2024/01/10 03:09:10;;;;;;;13.27;7.93;;;;;;;;;;5144249;27;20039;-53
2024/01/10 03:11:37;;;;;;;17.83;7.97;;;;;;;;;;5145418;27;20054;-53
2024/01/10 03:14:08;;;;;;;15.02;8.27;;;;;;;;;;5155410;27;20054;-51
2024/01/10 03:16:37;;;;;;;14.82;8.23;;;;;;;;;;5149679;27;20047;-52
2024/01/10 03:19:03;;;;;;;13.85;8.15;;;;;;;;;;5134516;27;20047;-53
2024/01/10 03:21:30;;;;;;;15.43;8.02;;;;;;;;;;5134387;27;20494;-53
2024/01/10 03:23:57;;;;;;;14.55;8.43;;;;;;;;;;5134765;27;20051;-52
2024/01/10 03:26:24;;;;;;;15.75;8.20;;;;;;;;;;5134478;27;20054;-51
2024/01/10 03:28:51;;;;;;;16.80;8.93;;;;;;;;;;5141064;27;20050;-53
2024/01/10 03:31:18;;;;;;;15.63;8.32;;;;;;;;;;5134126;27;20051;-51
2024/01/10 03:33:47;;;;;;;15.98;8.38;;;;;;;;;;5133156;27;20055;-54
2024/01/10 03:36:14;;;;;;;11.77;7.30;;;;;;;;;;5133880;27;20051;-52
2024/01/10 03:38:41;;;;;;;14.70;8.20;;;;;;;;;;5134410;27;20054;-52
2024/01/10 03:41:08;;;;;;;14.15;8.07;;;;;;;;;;5142612;27;20404;-51
2024/01/10 03:43:34;;;;;;;15.88;9.15;;;;;;;;;;5143255;27;20043;-53
2024/01/10 03:46:01;;;;;;;14.10;8.63;;;;;;;;;;5138907;27;20389;-53
2024/01/10 03:48:28;;;;;;;17.02;8.70;;;;;;;;;;5141181;27;20399;-51
2024/01/10 03:50:56;;;;;;;13.50;7.72;;;;;;;;;;5143703;27;20153;-52
2024/01/10 03:53:23;;;;;;;15.23;8.02;;;;;;;;;;5142233;27;20051;-53
2024/01/10 03:55:50;;;;;;;18.08;9.00;;;;;;;;;;5143912;27;20051;-53
2024/01/10 03:58:16;;;;;;;15.73;8.82;;;;;;;;;;5142041;27;20456;-53
2024/01/10 04:00:43;;;;;;;16.90;8.65;;;;;;;;;;5134847;27;20055;-52
2024/01/10 04:03:10;;;;;;;13.90;8.27;;;;;;;;;;5133658;27;20108;-52
2024/01/10 04:05:37;;;;;;;19.25;9.00;;;;;;;;;;5133543;27;20054;-52
2024/01/10 04:08:06;;;;;;;14.65;8.68;;;;;;;;;;5133235;27;20380;-54
2024/01/10 04:10:32;;;;;;;15.68;8.25;;;;;;;;;;5144097;27;20046;-51
2024/01/10 04:12:59;;;;;;;15.50;8.57;;;;;;;;;;5153881;27;20054;-51
2024/01/10 04:15:26;;;;;;;15.55;7.65;;;;;;;;;;5144684;27;20054;-53
2024/01/10 04:17:53;;;;;;;15.55;8.07;;;;;;;;;;5133359;27;20047;-50
2024/01/10 04:20:20;;;;;;;13.55;7.88;;;;;;;;;;5136775;27;20054;-52
2024/01/10 04:22:47;;;;;;;17.42;9.13;;;;;;;;;;5141684;27;20047;-51
2024/01/10 04:25:15;;;;;;;16.05;9.38;;;;;;;;;;5139411;27;20382;-50
2024/01/10 04:27:41;;;;;;;16.38;8.88;;;;;;;;;;5141068;27;20051;-51
2024/01/10 04:30:09;;;;;;;14.50;8.82;;;;;;;;;;5133361;27;20051;-52
2024/01/10 04:32:35;;;;;;;16.05;8.40;;;;;;;;;;5132906;28;20051;-52
2024/01/10 04:35:02;;;;;;;15.38;8.32;;;;;;;;;;5132916;28;20055;-53
2024/01/10 04:37:29;;;;;;;14.73;8.75;;;;;;;;;;5129183;27;20051;-53
2024/01/10 04:39:56;;;;;;;12.60;7.75;;;;;;;;;;5141969;27;20046;-50
2024/01/10 04:42:24;;;;;;;14.65;8.52;;;;;;;;;;5131707;27;20053;-55
2024/01/10 04:44:51;;;;;;;17.40;8.90;;;;;;;;;;5141806;27;20070;-53
2024/01/10 04:47:18;;;;;;;15.90;9.25;;;;;;;;;;5132372;27;20051;-54
2024/01/10 04:49:45;;;;;;;17.40;8.93;;;;;;;;;;5132908;28;20043;-52
2024/01/10 04:52:12;;;;;;;15.52;8.43;;;;;;;;;;5137038;27;20058;-56
2024/01/10 04:54:39;;;;;;;16.58;8.68;;;;;;;;;;5164285;27;20057;-54
2024/01/10 04:57:05;;;;;;;15.57;9.05;;;;;;;;;;5164094;27;20061;-52
2024/01/10 04:59:34;;;;;;;16.15;8.98;;;;;;;;;;5157417;27;20047;-53
2024/01/10 05:02:00;;;;;;;14.88;9.02;;;;;;;;;;5158086;27;20059;-52
2024/01/10 05:04:27;;;;;;;17.50;9.07;;;;;;;;;;5161506;27;20070;-51
2024/01/10 05:06:54;;;;;;;13.30;8.23;;;;;;;;;;5166469;27;20046;-51
2024/01/10 05:09:21;;;;;;;14.93;8.85;;;;;;;;;;5168323;27;20045;-53
2024/01/10 05:11:50;;;;;;;16.52;9.13;;;;;;;;;;5156170;27;20046;-51
2024/01/10 05:14:19;;;;;;;15.05;8.52;;;;;;;;;;5167766;27;20391;-51
2024/01/10 05:16:48;;;;;;;18.25;9.05;;;;;;;;;;5163834;27;20047;-50
2024/01/10 05:19:15;;;;;;;14.18;8.48;;;;;;;;;;5166203;27;20045;-51
2024/01/10 05:21:42;;;;;;;15.52;8.27;;;;;;;;;;5163054;27;20051;-54
2024/01/10 05:24:09;;;;;;;16.35;8.88;;;;;;;;;;5163920;27;20050;-52
2024/01/10 05:26:35;;;;;;;14.32;7.97;;;;;;;;;;5157213;27;20487;-51
2024/01/10 05:29:02;;;;;;;16.13;8.27;;;;;;;;;;5157010;27;20491;-54
2024/01/10 05:31:29;;;;;;;17.73;9.45;;;;;;;;;;5156692;27;20058;-51
2024/01/10 05:33:59;;;;;;;17.08;9.18;;;;;;;;;;5154414;27;20376;-54
2024/01/10 05:36:26;;;;;;;16.63;9.05;;;;;;;;;;5154430;27;20058;-51
2024/01/10 05:38:53;;;;;;;16.10;8.63;;;;;;;;;;5153164;27;20643;-55
2024/01/10 05:41:19;;;;;;;15.18;8.07;;;;;;;;;;5155148;27;20051;-54
2024/01/10 05:43:46;;;;;;;15.23;8.57;;;;;;;;;;5155336;27;20047;-54
2024/01/10 05:46:15;;;;;;;14.32;8.40;;;;;;;;;;5154702;27;20057;-51
2024/01/10 05:48:42;;;;;;;11.57;6.93;;;;;;;;;;5154905;27;20042;-53
2024/01/10 05:51:10;;;;;;;17.88;9.23;;;;;;;;;;5153992;27;20309;-53
2024/01/10 05:53:37;;;;;;;17.35;9.27;;;;;;;;;;5147068;27;20104;-51
2024/01/10 05:56:06;;;;;;;16.05;9.05;;;;;;;;;;5143956;27;20051;-54
2024/01/10 05:58:33;;;;;;;16.35;8.73;;;;;;;;;;5140154;27;20050;-54
2024/01/10 06:00:59;;;;;;;15.30;8.32;;;;;;;;;;5144367;27;20476;-50
2024/01/10 06:03:26;;;;;;;16.88;8.63;;;;;;;;;;5132318;27;20400;-54
2024/01/10 06:05:53;;;;;;;17.95;8.82;;;;;;;;;;5132562;27;20054;-51
2024/01/10 06:08:25;;;;;;;16.17;8.93;;;;;;;;;;5133762;27;20055;-53
2024/01/10 06:10:52;;;;;;;16.55;8.82;;;;;;;;;;5132591;27;20043;-53
2024/01/10 06:13:19;;;;;;;16.77;8.88;;;;;;;;;;5133632;27;20385;-54
2024/01/10 06:15:46;;;;;;;17.90;9.18;;;;;;;;;;5134072;27;20374;-51
2024/01/10 06:18:13;;;;;;;17.77;9.68;;;;;;;;;;5132105;27;20373;-52
2024/01/10 06:20:39;;;;;;;16.05;9.07;;;;;;;;;;5133919;27;20047;-54
2024/01/10 06:23:06;;;;;;;16.08;8.82;;;;;;;;;;5135430;27;20058;-52
2024/01/10 06:25:34;;;;;;;19.10;10.60;;;;;;;;;;5135442;27;20051;-53
2024/01/10 06:28:01;;;;;;;15.85;9.05;;;;;;;;;;5134856;27;20477;-53
2024/01/10 06:30:28;;;;;;;15.90;8.90;;;;;;;;;;5133362;27;20047;-53
2024/01/10 06:32:55;;;;;;;15.23;8.70;;;;;;;;;;5133868;27;20491;-52
2024/01/10 06:35:21;;;;;;;16.63;8.95;;;;;;;;;;5138674;27;20050;-53
2024/01/10 06:37:48;;;;;;;15.68;8.38;;;;;;;;;;5134757;27;20051;-54
2024/01/10 06:40:16;;;;;;;17.88;9.55;;;;;;;;;;5135687;27;20400;-54
2024/01/10 06:42:44;;;;;;;20.63;9.57;;;;;;;;;;5142190;27;20051;-52
2024/01/10 06:45:11;;;;;;;16.27;9.13;;;;;;;;;;5135249;27;20051;-53
2024/01/10 06:47:38;;;;;;;14.52;8.55;;;;;;;;;;5133342;27;20047;-52
2024/01/10 06:50:06;;;;;;;16.08;9.10;;;;;;;;;;5147799;27;20503;-54
2024/01/10 06:52:32;;;;;;;15.75;8.57;;;;;;;;;;5141701;27;20047;-54
2024/01/10 06:54:59;;;;;;;17.98;9.30;;;;;;;;;;5155342;27;20379;-54
2024/01/10 06:57:26;;;;;;;14.32;8.75;;;;;;;;;;5153626;27;20478;-55
2024/01/10 06:59:54;;;;;;;15.32;8.60;;;;;;;;;;5160824;27;20049;-51
2024/01/10 07:02:21;;;;;;;15.85;8.50;;;;;;;;;;5155030;27;20046;-52
2024/01/10 07:04:49;;;;;;;14.27;8.40;;;;;;;;;;5154841;27;20058;-51
2024/01/10 07:07:17;;;;;;;20.08;9.32;;;;;;;;;;5155769;27;20051;-52
2024/01/10 07:09:43;;;;;;;16.48;9.63;;;;;;;;;;5156837;27;20047;-58
2024/01/10 07:12:10;;;;;;;16.30;8.88;;;;;;;;;;5154220;27;20446;-54
2024/01/10 07:14:37;;;;;;;18.50;9.75;;;;;;;;;;5149895;27;20625;-53
2024/01/10 07:17:05;;;;;;;16.13;8.73;;;;;;;;;;5153895;27;20058;-53
2024/01/10 07:19:32;;;;;;;16.92;9.25;;;;;;;;;;5151821;27;20046;-51
2024/01/10 07:21:59;;;;;;;19.50;10.45;;;;;;;;;;5153315;27;20047;-52
2024/01/10 07:24:26;;;;;;;15.70;9.68;;;;;;;;;;5152783;27;20069;-54
2024/01/10 07:26:52;;;;;;;17.67;9.90;;;;;;;;;;5153021;27;20407;-53
2024/01/10 07:29:19;;;;;;;22.48;9.77;;;;;;;;;;5152837;27;20055;-53
2024/01/10 07:31:46;;;;;;;15.77;8.98;;;;;;;;;;5153030;27;20054;-51
2024/01/10 07:34:14;;;;;;;17.75;9.38;;;;;;;;;;5154922;27;20058;-51
2024/01/10 07:36:44;;;;;;;20.92;10.93;;;;;;;;;;5153721;27;20065;-53
2024/01/10 07:39:11;;;;;;;17.35;10.13;;;;;;;;;;5152559;27;20066;-51
2024/01/10 07:41:37;;;;;;;16.30;9.00;;;;;;;;;;5154583;27;20043;-51
2024/01/10 07:44:05;;;;;;;20.83;9.85;;;;;;;;;;5154782;27;20399;-52
2024/01/10 07:46:31;;;;;;;16.60;9.70;;;;;;;;;;5153165;27;20069;-52
2024/01/10 07:49:00;;;;;;;21.17;10.73;;;;;;;;;;5152387;27;20043;-52
2024/01/10 07:51:28;;;;;;;20.73;11.38;;;;;;;;;;5152859;27;20803;-50
2024/01/10 07:53:55;;;;;;;18.98;10.35;;;;;;;;;;5134731;27;20423;-54
2024/01/10 07:56:21;;;;;;;19.40;10.18;;;;;;;;;;5132414;27;20069;-52
2024/01/10 07:58:49;;;;;;;17.13;10.45;;;;;;;;;;5132015;27;20070;-51
2024/01/10 08:01:16;;;;;;;19.88;10.65;;;;;;;;;;5132711;27;20043;-53
2024/01/10 08:03:43;;;;;;;18.70;10.15;;;;;;;;;;5131494;27;20055;-53
2024/01/10 08:06:10;;;;;;;18.60;9.68;;;;;;;;;;5132911;27;20054;-50
2024/01/10 08:08:38;;;;;;;20.05;11.18;;;;;;;;;;5133690;27;20062;-52
2024/01/10 08:11:05;;;;;;;18.90;9.85;;;;;;;;;;5133363;27;20054;-52
2024/01/10 08:13:32;;;;;;;17.15;9.55;;;;;;;;;;5130301;27;20519;-52
2024/01/10 08:15:58;;;;;;;17.63;9.05;;;;;;;;;;5131596;27;20062;-51
2024/01/10 08:18:25;;;;;;;16.08;9.02;;;;;;;;;;5131820;27;20043;-54
2024/01/10 08:20:52;;;;;;;23.77;10.25;;;;;;;;;;5133305;27;20047;-51
2024/01/10 08:23:20;;;;;;;15.45;8.55;;;;;;;;;;5132765;27;20474;-52
2024/01/10 08:25:48;;;;;;;18.40;10.18;;;;;;;;;;5131631;27;20048;-51
2024/01/10 08:28:16;;;;;;;17.27;10.88;;;;;;;;;;5135639;27;20061;-53
2024/01/10 08:30:42;;;;;;;19.58;11.32;;;;;;;;;;5136551;27;20046;-53
2024/01/10 08:33:08;;;;;;;17.35;10.52;;;;;;;;;;5137406;27;20438;-54
2024/01/10 08:35:35;;;;;;;19.42;12.32;;;;;;;;;;5137341;27;20058;-54
2024/01/10 08:38:04;;;;;;;17.85;10.07;;;;;;;;;;5137479;27;20395;-52
2024/01/10 08:40:31;;;;;;;16.13;10.30;;;;;;;;;;5136287;27;20043;-53
2024/01/10 08:42:59;;;;;;;16.90;11.32;;;;;;;;;;5134471;27;20051;-53
2024/01/10 08:45:26;;;;;;;15.20;10.73;;;;;;;;;;5135702;27;20500;-53
2024/01/10 08:47:53;;;;;;;17.10;11.02;;;;;;;;;;5136505;27;20054;-53
2024/01/10 08:50:19;;;;;;;18.13;11.27;;;;;;;;;;5137181;27;20050;-55
2024/01/10 08:52:46;;;;;;;19.10;12.10;;;;;;;;;;5135053;27;20424;-53
2024/01/10 08:55:13;;;;;;;17.30;12.02;;;;;;;;;;5135946;27;20399;-51
2024/01/10 08:57:40;;;;;;;19.08;12.25;;;;;;;;;;5137146;27;20058;-52
2024/01/10 09:00:11;;;;;;;19.10;14.00;;;;;;;;;;5137072;27;20058;-54
2024/01/10 09:02:38;;;;;;;18.25;14.07;;;;;;;;;;5136043;27;20043;-53
2024/01/10 09:05:07;;;;;;;17.40;12.98;;;;;;;;;;5136837;27;20058;-54
2024/01/10 09:07:34;;;;;;;18.90;13.45;;;;;;;;;;5136930;27;20057;-53
2024/01/10 09:10:02;;;;;;;18.70;13.70;;;;;;;;;;5136857;27;20362;-56
2024/01/10 09:12:28;;;;;;;19.52;14.20;;;;;;;;;;5136760;27;20376;-55
2024/01/10 09:14:55;;;;;;;21.58;15.35;;;;;;;;;;5135264;27;20075;-56
2024/01/10 09:17:22;;;;;;;20.95;14.90;;;;;;;;;;5134703;27;20055;-57
2024/01/10 09:19:49;;;;;;;20.27;14.73;;;;;;;;;;5135670;27;20050;-57
2024/01/10 09:22:16;;;;;;;19.85;14.88;;;;;;;;;;5136924;27;20051;-56
2024/01/10 09:24:43;;;;;;;20.77;14.80;;;;;;;;;;5135777;27;20047;-57
2024/01/10 09:27:10;;;;;;;21.17;15.63;;;;;;;;;;5135146;27;20047;-57
2024/01/10 09:29:36;;;;;;;18.75;15.15;;;;;;;;;;5135595;27;20047;-57
2024/01/10 09:32:03;;;;;;;20.10;15.10;;;;;;;;;;5136337;27;20086;-57
2024/01/10 09:34:32;;;;;;;20.08;16.35;;;;;;;;;;5135628;27;20065;-58
2024/01/10 09:36:59;;;;;;;22.03;16.33;;;;;;;;;;5134673;27;20074;-57
2024/01/10 09:39:25;;;;;;;21.38;16.83;;;;;;;;;;5135988;27;20059;-57
2024/01/10 09:41:52;;;;;;;23.02;17.65;;;;;;;;;;5136219;27;20058;-58
2024/01/10 09:44:21;;;;;;;20.33;15.95;;;;;;;;;;5136726;27;20055;-57
2024/01/10 09:46:50;;;;;;;21.02;14.23;;;;;;;;;;5136182;27;20385;-57
2024/01/10 09:49:17;;;;;;;;;;;;;;;;;;5136335;27;20502;-57
2024/01/10 09:51:47;;;;;;;18.35;14.48;;;;;;;;;;5136501;27;19919;-56
2024/01/10 09:54:15;;;;;;;20.05;14.77;;;;;;;;;;5135555;27;20373;-57
2024/01/10 09:56:42;;;;;;;19.13;14.50;;;;;;;;;;5136257;27;20066;-57
2024/01/10 09:59:12;;;;;;;17.13;14.93;;;;;;;;;;5132457;27;20099;-58
2024/01/10 10:01:40;;;;;;;19.50;15.25;;;;;;;;;;5134209;27;20039;-57
2024/01/10 10:04:07;;;;;;;20.58;15.25;;;;;;;;;;5134489;27;20412;-57
2024/01/10 10:06:35;;;;;;;21.00;15.85;;;;;;;;;;5136143;27;20404;-57
2024/01/10 10:09:04;;;;;;;19.25;14.93;;;;;;;;;;5135478;27;20051;-57
2024/01/10 10:11:30;;;;;;;20.48;15.50;;;;;;;;;;5132160;27;20043;-58
2024/01/10 10:14:14;;;;;;;21.13;16.00;;;;;;;;;;5134224;27;20047;-57
2024/01/10 10:16:41;;;;;;;22.20;15.48;;;;;;;;;;5134640;27;20047;-58
2024/01/10 10:19:09;;;;;;;23.95;15.70;;;;;;;;;;5132506;27;20054;-57
2024/01/10 10:21:36;;;;;;;21.25;16.00;;;;;;;;;;5133917;27;20039;-57
2024/01/10 10:24:04;;;;;;;24.42;17.02;;;;;;;;;;5135300;27;20065;-57
2024/01/10 10:26:33;;;;;;;24.15;17.52;;;;;;;;;;5135355;27;20055;-57
2024/01/10 10:29:00;;;;;;;24.20;17.33;;;;;;;;;;5135661;27;20047;-56
2024/01/10 10:31:27;;;;;;;23.80;16.40;;;;;;;;;;5135897;27;20399;-57
2024/01/10 10:33:55;;;;;;;22.40;16.13;;;;;;;;;;5135821;27;20078;-58
2024/01/10 10:36:21;;;;;;;23.30;16.42;;;;;;;;;;5133265;27;20047;-59
2024/01/10 10:38:49;;;;;;;23.08;17.00;;;;;;;;;;5132575;27;20047;-57
2024/01/10 10:41:17;;;;;;;19.90;15.13;;;;;;;;;;5135589;27;20062;-57
2024/01/10 10:43:44;;;;;;;24.30;16.45;;;;;;;;;;5135357;27;20059;-58
2024/01/10 10:46:12;;;;;;;23.27;16.23;;;;;;;;;;5133996;27;20055;-58
2024/01/10 10:48:39;;;;;;;22.65;15.32;;;;;;;;;;5135010;27;20058;-57
2024/01/10 10:51:07;;;;;;;21.17;15.93;;;;;;;;;;5134620;27;20400;-57
2024/01/10 10:53:35;;;;;;;20.38;15.13;;;;;;;;;;5134306;27;20054;-57
2024/01/10 10:56:04;;;;;;;20.92;16.60;;;;;;;;;;5134844;27;20126;-56
2024/01/10 10:58:34;;;;;;;21.90;16.33;;;;;;;;;;5134681;27;20074;-57
2024/01/10 11:01:01;;;;;;;24.45;17.10;;;;;;;;;;5135128;27;20055;-57
2024/01/10 11:03:29;;;;;;;20.92;16.13;;;;;;;;;;5134003;27;20061;-57
2024/01/10 11:05:56;;;;;;;22.92;16.83;;;;;;;;;;5132079;27;20050;-57
2024/01/10 11:08:24;;;;;;;20.23;16.52;;;;;;;;;;5132724;27;20058;-56
2024/01/10 11:10:51;;;;;;;17.73;15.23;;;;;;;;;;5132568;27;20051;-57
2024/01/10 11:13:26;;;;;;;18.40;15.55;;;;;;;;;;5132483;27;20054;-57
2024/01/10 11:16:08;;;;;;;20.77;16.65;;;;;;;;;;5132344;27;20069;-57
2024/01/10 11:18:46;;;;;;;21.20;16.95;;;;;;;;;;5132718;27;20061;-57
2024/01/10 11:21:20;;;;;;;18.80;16.30;;;;;;;;;;5132809;27;20062;-57
2024/01/10 11:23:48;;;;;;;20.92;15.82;;;;;;;;;;5134602;27;20404;-57
2024/01/10 11:26:15;;;;;;;18.15;15.63;;;;;;;;;;5134725;27;20055;-57
2024/01/10 11:28:42;;;;;;;19.38;15.20;;;;;;;;;;5132820;27;20047;-56
2024/01/10 11:31:12;;;;;;;18.10;14.90;;;;;;;;;;5132359;27;20062;-57
2024/01/10 11:33:41;;;;;;;19.10;15.90;;;;;;;;;;5131488;27;20043;-56
2024/01/10 11:36:09;;;;;;;18.50;15.25;;;;;;;;;;5133519;27;20051;-56
2024/01/10 11:38:39;;;;;;;19.40;15.85;;;;;;;;;;5133851;27;20062;-56
2024/01/10 11:41:06;;;;;;;18.85;15.82;;;;;;;;;;5133899;27;20058;-57
2024/01/10 11:43:33;;;;;;;18.48;16.48;;;;;;;;;;5134039;27;20076;-56
2024/01/10 11:46:01;;;;;;;20.65;16.85;;;;;;;;;;5131924;27;20046;-57
2024/01/10 11:48:30;;;;;;;19.05;14.82;;;;;;;;;;5132324;27;20507;-56
2024/01/10 11:50:58;;;;;;;18.47;15.53;;;;;;;;;;5133565;27;20381;-56
2024/01/10 11:53:46;;;;;;;17.43;15.57;;;;;;;;;;5146996;27;20653;-57
2024/01/10 11:56:14;;;;;;;18.38;16.40;;;;;;;;;;5154600;27;20095;-57
2024/01/10 11:58:54;;;;;;;17.77;15.40;;;;;;;;;;5137213;27;20044;-56
2024/01/10 12:01:21;;;;;;;16.65;14.45;;;;;;;;;;5152104;27;20065;-57
2024/01/10 12:03:51;;;;;;;19.52;14.43;;;;;;;;;;5152955;27;20504;-56
2024/01/10 12:06:17;;;;;;;18.73;16.30;;;;;;;;;;5154222;27;20054;-57
2024/01/10 12:08:44;;;;;;;18.70;16.27;;;;;;;;;;5154269;27;20059;-57
2024/01/10 12:11:11;;;;;;;19.30;16.45;;;;;;;;;;5153072;27;20051;-57
2024/01/10 12:13:38;;;;;;;19.67;15.55;;;;;;;;;;5152824;27;20047;-57
2024/01/10 12:16:05;;;;;;;18.88;16.27;;;;;;;;;;5154568;27;20046;-56
2024/01/10 12:18:32;;;;;;;19.80;15.90;;;;;;;;;;5152743;27;20391;-56
2024/01/10 12:21:01;;;;;;;18.38;15.82;;;;;;;;;;5154344;27;20055;-57
2024/01/10 12:23:31;;;;;;;20.67;16.67;;;;;;;;;;5154129;27;20373;-56
2024/01/10 12:25:58;;;;;;;19.52;16.83;;;;;;;;;;5154219;27;20128;-56
2024/01/10 12:28:25;;;;;;;17.90;16.00;;;;;;;;;;5154149;27;20066;-57
2024/01/10 12:30:52;;;;;;;17.90;16.00;;;;;;;;;;5151567;27;20050;-56
2024/01/10 12:33:23;;;;;;;18.52;16.60;;;;;;;;;;5152682;27;20046;-57
2024/01/10 12:36:04;;;;;;;18.90;16.85;;;;;;;;;;5153667;27;20475;-56
2024/01/10 12:38:31;;;;;;;18.63;16.50;;;;;;;;;;5153965;27;20050;-57
2024/01/10 12:40:58;;;;;;;19.95;16.60;;;;;;;;;;5152543;27;20051;-57
2024/01/10 12:43:25;;;;;;;20.77;17.80;;;;;;;;;;5152234;27;20043;-56
2024/01/10 12:46:03;;;;;;;24.27;17.27;;;;;;;;;;5153126;27;20050;-56
2024/01/10 12:48:30;;;;;;;26.70;19.10;;;;;;;;;;5153781;27;20471;-56
2024/01/10 12:50:57;;;;;;;18.42;16.48;;;;;;;;;;5153999;27;20080;-58
2024/01/10 12:53:25;;;;;;;21.42;18.08;;;;;;;;;;5153836;27;20399;-58
2024/01/10 12:55:51;;;;;;;18.02;16.02;;;;;;;;;;5153847;27;20498;-57
2024/01/10 12:58:19;;;;;;;18.88;15.90;;;;;;;;;;5153343;27;20414;-58
2024/01/10 13:00:46;;;;;;;23.40;16.98;;;;;;;;;;5151534;27;20074;-58
2024/01/10 13:03:13;;;;;;;23.95;16.45;;;;;;;;;;5153194;27;20046;-57
2024/01/10 13:05:40;;;;;;;23.25;17.75;;;;;;;;;;5153893;27;20058;-58
2024/01/10 13:08:07;;;;;;;25.17;17.67;;;;;;;;;;5153403;27;20053;-57
2024/01/10 13:10:35;;;;;;;19.98;16.92;;;;;;;;;;5152073;27;20499;-57
2024/01/10 13:13:02;;;;;;;21.02;16.73;;;;;;;;;;5150189;27;20046;-58
2024/01/10 13:15:29;;;;;;;21.38;16.35;;;;;;;;;;5152877;27;20046;-57
2024/01/10 13:17:57;;;;;;;21.20;16.70;;;;;;;;;;5157555;27;20051;-57
2024/01/10 13:20:24;;;;;;;21.23;17.13;;;;;;;;;;5157039;27;20053;-57
2024/01/10 13:22:51;;;;;;;21.65;17.40;;;;;;;;;;5157349;27;20047;-57
2024/01/10 13:25:21;;;;;;;20.75;15.77;;;;;;;;;;5156922;27;20059;-58
2024/01/10 13:27:49;;;;;;;22.15;15.63;;;;;;;;;;5155366;27;20050;-57
2024/01/10 13:30:16;;;;;;;22.92;17.75;;;;;;;;;;5157000;27;20051;-57
2024/01/10 13:32:43;;;;;;;21.27;15.90;;;;;;;;;;5156668;27;20399;-56
2024/01/10 13:35:09;;;;;;;24.75;16.70;;;;;;;;;;5157352;27;20057;-56
2024/01/10 13:37:36;;;;;;;25.05;16.05;;;;;;;;;;5155693;27;20407;-56
2024/01/10 13:40:05;;;;;;;25.40;16.42;;;;;;;;;;5157492;27;20115;-56
2024/01/10 13:42:32;;;;;;;22.95;15.60;;;;;;;;;;5156705;27;20039;-57
2024/01/10 13:45:01;;;;;;;23.50;15.38;;;;;;;;;;5157305;27;20163;-57
2024/01/10 13:47:27;;;;;;;23.48;15.55;;;;;;;;;;5156203;27;20050;-55
2024/01/10 13:49:54;;;;;;;24.92;16.02;;;;;;;;;;5157214;27;20058;-56
2024/01/10 13:52:21;;;;;;;24.27;16.20;;;;;;;;;;5156518;27;20058;-56
2024/01/10 13:54:48;;;;;;;23.05;14.98;;;;;;;;;;5156809;27;20046;-56
2024/01/10 13:57:14;;;;;;;22.92;15.80;;;;;;;;;;5155647;27;20057;-56
2024/01/10 13:59:42;;;;;;;24.25;15.95;;;;;;;;;;5154780;27;20388;-57
2024/01/10 14:02:10;;;;;;;22.30;15.85;;;;;;;;;;5135676;27;20062;-55
2024/01/10 14:04:37;;;;;;;27.45;16.52;;;;;;;;;;5147113;27;20051;-56
2024/01/10 14:07:04;;;;;;;26.42;16.10;;;;;;;;;;5156543;27;20058;-57
2024/01/10 14:09:31;;;;;;;23.92;17.08;;;;;;;;;;5154548;27;20055;-56
2024/01/10 14:11:58;;;;;;;22.92;15.75;;;;;;;;;;5154713;27;20062;-57
2024/01/10 14:14:25;;;;;;;26.40;16.50;;;;;;;;;;5155399;27;20079;-56
2024/01/10 14:16:51;;;;;;;25.65;16.45;;;;;;;;;;5155978;27;20448;-56
2024/01/10 14:19:20;;;;;;;23.02;15.60;;;;;;;;;;5156375;27;20054;-56
2024/01/10 14:21:47;;;;;;;29.73;17.40;;;;;;;;;;5155768;27;20046;-55
2024/01/10 14:24:13;;;;;;;26.13;16.52;;;;;;;;;;5155499;27;20055;-56